Time;durP1;ratioP1;P1;durP2;ratioP2;P2;SDS_P1;SDS_P2;PMS_P1;PMS_P2;Temp;Humidity;BMP_temperature;BMP_pressure;BME280_temperature;BME280_humidity;BME280_pressure;Samples;Min_cycle;Max_cycle;Signal;HPM_P1;HPM_P2
2021/06/10 00:01:05;;;;;;;303.33;18.50;;;;;;;18.43;70.24;95875.09;6922303;28;20220;-78
2021/06/10 00:04:26;;;;;;;120.63;17.53;;;;;;;18.39;70.92;95863.00;6923794;28;20756;-77
2021/06/10 00:07:48;;;;;;;17.73;14.60;;;;;;;18.38;70.49;95865.84;6910457;28;20240;-77
2021/06/10 00:11:09;;;;;;;23.43;14.93;;;;;;;18.41;70.07;95871.72;6917210;28;20223;-77
2021/06/10 00:14:32;;;;;;;132.50;15.93;;;;;;;18.39;70.68;95867.53;6901432;28;20212;-77
2021/06/10 00:17:52;;;;;;;172.47;17.23;;;;;;;18.32;71.24;95863.81;6915736;28;20224;-78
2021/06/10 00:21:13;;;;;;;78.20;12.07;;;;;;;18.25;70.99;95860.97;6922885;28;20634;-77
2021/06/10 00:24:34;;;;;;;35.70;10.70;;;;;;;18.21;70.57;95869.53;6934360;28;20216;-77
2021/06/10 00:27:55;;;;;;;38.33;10.47;;;;;;;18.17;70.59;95870.88;6918135;28;20317;-77
2021/06/10 00:31:16;;;;;;;201.63;14.47;;;;;;;18.12;71.25;95863.31;6916366;28;20217;-78
2021/06/10 00:34:36;;;;;;;83.10;12.23;;;;;;;18.01;72.54;95863.63;6917810;28;20572;-78
2021/06/10 00:37:59;;;;;;;29.13;11.33;;;;;;;17.94;72.06;95860.81;6883644;28;20624;-77
2021/06/10 00:41:19;;;;;;;11.70;10.70;;;;;;;17.94;71.18;95868.03;6914572;28;20220;-77
2021/06/10 00:44:40;;;;;;;10.43;9.63;;;;;;;17.94;70.67;95863.50;6912613;28;20272;-77
2021/06/10 00:48:00;;;;;;;23.27;10.43;;;;;;;17.99;70.44;95868.38;6924768;28;20739;-77
2021/06/10 00:51:21;;;;;;;9.33;8.47;;;;;;;18.00;69.71;95872.72;6911246;28;20224;-78
2021/06/10 00:54:41;;;;;;;9.30;8.60;;;;;;;17.99;69.10;95869.19;6918226;28;20204;-78
2021/06/10 00:58:03;;;;;;;8.43;7.83;;;;;;;17.93;68.98;95863.66;6909179;28;20212;-77
2021/06/10 01:01:24;;;;;;;11.40;7.53;;;;;;;17.87;68.86;95864.31;6911186;28;20204;-77
2021/06/10 01:04:44;;;;;;;8.63;7.50;;;;;;;17.86;69.25;95868.00;6927137;28;20215;-77
2021/06/10 01:08:47;;;;;;;112.67;9.63;;;;;;;17.83;69.88;95873.72;6931604;28;20240;-77
2021/06/10 01:12:27;;;;;;;148.33;11.07;;;;;;;17.80;70.60;95868.69;6931188;28;20327;-77
2021/06/10 01:15:52;;;;;;;82.67;9.03;;;;;;;17.75;70.65;95868.34;6922072;28;20223;-79
2021/06/10 01:19:21;;;;;;;38.73;8.20;;;;;;;17.72;70.35;95869.50;6906965;28;20219;-77
2021/06/10 01:22:56;;;;;;;12.60;7.97;;;;;;;17.68;69.93;95870.81;6922210;28;20237;-77
2021/06/10 01:26:30;;;;;;;8.00;7.40;;;;;;;17.68;69.55;95872.66;6920152;28;20214;-78
2021/06/10 01:29:59;;;;;;;46.17;7.93;;;;;;;17.63;69.83;95861.56;6924868;28;20576;-78
2021/06/10 01:33:27;;;;;;;10.87;7.67;;;;;;;17.60;69.85;95867.28;6898062;28;20737;-78
2021/06/10 01:36:48;;;;;;;273.70;13.07;;;;;;;17.56;70.25;95864.88;6919877;28;20593;-76
2021/06/10 01:40:09;;;;;;;107.37;10.20;;;;;;;17.53;71.22;95862.53;6901994;28;20753;-75
2021/06/10 01:43:34;;;;;;;169.60;12.13;;;;;;;17.49;71.95;95866.56;6914601;28;20215;-77
2021/06/10 01:46:55;;;;;;;24.13;9.30;;;;;;;17.47;71.72;95860.50;6913342;28;20227;-78
2021/06/10 01:50:22;;;;;;;62.07;9.07;;;;;;;17.43;71.18;95861.84;6919287;28;20240;-77
2021/06/10 01:53:46;;;;;;;168.80;11.93;;;;;;;17.41;71.54;95863.00;6908320;28;20234;-77
2021/06/10 01:57:07;;;;;;;107.87;10.10;;;;;;;17.31;72.51;95856.91;6923705;28;20293;-78
2021/06/10 02:00:29;;;;;;;19.77;7.43;;;;;;;17.27;71.45;95853.72;6920688;28;20211;-77
2021/06/10 02:03:50;;;;;;;47.57;8.00;;;;;;;17.27;71.04;95853.72;6941608;28;20211;-77
2021/06/10 02:07:10;;;;;;;6.90;6.40;;;;;;;17.28;71.04;95842.00;6918436;28;20236;-76
2021/06/10 02:10:31;;;;;;;6.00;5.60;;;;;;;17.30;70.42;95841.84;6948464;28;20227;-77
2021/06/10 02:13:54;;;;;;;7.20;6.70;;;;;;;17.28;70.07;95836.63;6917893;28;20291;-77
2021/06/10 02:17:16;;;;;;;11.73;10.60;;;;;;;17.26;69.81;95843.97;6915026;28;20603;-78
2021/06/10 02:20:37;;;;;;;12.20;11.13;;;;;;;17.23;69.44;95838.09;6918095;28;20283;-77
2021/06/10 02:23:57;;;;;;;14.50;13.20;;;;;;;17.17;69.73;95834.22;6899334;28;20600;-77
2021/06/10 02:27:18;;;;;;;16.60;15.00;;;;;;;17.17;70.12;95835.06;6915000;28;20232;-77
2021/06/10 02:30:38;;;;;;;17.10;15.47;;;;;;;17.21;70.47;95829.38;6887553;28;20212;-78
2021/06/10 02:33:59;;;;;;;17.90;16.20;;;;;;;17.24;70.41;95831.75;6910869;28;20224;-77
2021/06/10 02:37:21;;;;;;;18.17;16.53;;;;;;;17.27;70.46;95823.34;6917580;28;20212;-77
2021/06/10 02:40:45;;;;;;;17.87;16.27;;;;;;;17.28;70.26;95827.72;6915439;28;20299;-77
2021/06/10 02:44:06;;;;;;;21.63;16.07;;;;;;;17.26;70.35;95829.72;6909539;28;20833;-78
2021/06/10 02:47:27;;;;;;;49.17;15.37;;;;;;;17.20;70.76;95833.91;6910932;28;20227;-77
2021/06/10 02:50:50;;;;;;;142.10;17.67;;;;;;;17.18;71.45;95833.22;6917910;28;20706;-77
2021/06/10 02:54:14;;;;;;;67.13;15.07;;;;;;;17.17;72.18;95835.06;6939229;28;20257;-76
2021/06/10 02:57:35;;;;;;;44.37;16.70;;;;;;;17.19;72.12;95837.59;6913509;28;20216;-77
2021/06/10 03:00:56;;;;;;;19.50;15.57;;;;;;;17.22;71.65;95834.59;6921864;28;20210;-77
2021/06/10 03:04:19;;;;;;;21.20;16.93;;;;;;;17.22;71.40;95829.22;6922724;28;20258;-77
2021/06/10 03:07:40;;;;;;;17.87;16.17;;;;;;;17.17;70.69;95832.38;6911745;28;20295;-78
2021/06/10 03:11:03;;;;;;;95.67;18.70;;;;;;;17.16;70.69;95828.00;6916216;28;20232;-77
2021/06/10 03:14:24;;;;;;;200.33;22.10;;;;;;;17.05;72.06;95825.63;6933082;28;20694;-77
2021/06/10 03:17:50;;;;;;;442.93;23.93;;;;;;;17.01;73.10;95821.59;6934986;28;20287;-78
2021/06/10 03:21:11;;;;;;;45.13;16.07;;;;;;;16.97;72.57;95830.97;6930854;28;20217;-75
2021/06/10 03:24:33;;;;;;;15.00;12.27;;;;;;;16.96;71.97;95829.28;6916010;28;20829;-77
2021/06/10 03:27:53;;;;;;;14.37;12.90;;;;;;;16.94;71.45;95827.78;6913123;28;20212;-78
2021/06/10 03:31:14;;;;;;;14.40;13.03;;;;;;;16.94;70.89;95827.78;6932301;28;20243;-77
2021/06/10 03:34:35;;;;;;;13.90;12.73;;;;;;;16.90;70.50;95821.06;6911627;28;20208;-77
2021/06/10 03:38:00;;;;;;;12.70;11.60;;;;;;;16.90;70.20;95829.09;6920243;28;20296;-79
2021/06/10 03:41:20;;;;;;;10.23;9.40;;;;;;;16.91;69.93;95825.41;6899908;28;20219;-78
2021/06/10 03:44:41;;;;;;;193.90;12.30;;;;;;;16.94;70.45;95823.25;6900235;28;20224;-78
2021/06/10 03:48:02;;;;;;;62.73;10.20;;;;;;;16.93;70.55;95828.75;6914924;28;20224;-79
2021/06/10 03:51:23;;;;;;;24.53;10.00;;;;;;;16.92;70.53;95827.94;6907209;28;20220;-78
2021/06/10 03:54:43;;;;;;;31.33;9.57;;;;;;;16.91;70.63;95825.41;6925056;28;20213;-77
2021/06/10 03:58:03;;;;;;;20.17;8.20;;;;;;;16.92;70.75;95829.75;6923275;28;20598;-78
2021/06/10 04:01:24;;;;;;;8.07;7.37;;;;;;;16.94;70.50;95827.78;6931153;28;20583;-78
2021/06/10 04:04:45;;;;;;;13.13;7.97;;;;;;;16.99;70.58;95834.34;6903611;28;20224;-79
2021/06/10 04:08:05;;;;;;;7.93;7.33;;;;;;;17.04;70.43;95826.66;6922356;28;20308;-78
2021/06/10 04:11:26;;;;;;;11.77;10.77;;;;;;;17.06;70.25;95821.94;6925607;28;20224;-77
2021/06/10 04:14:46;;;;;;;18.30;16.60;;;;;;;17.12;70.37;95829.34;6934083;28;20242;-78
2021/06/10 04:18:09;;;;;;;29.20;18.13;;;;;;;17.19;70.81;95828.72;6921050;28;20231;-76
2021/06/10 04:21:30;;;;;;;33.40;17.37;;;;;;;17.17;71.21;95827.03;6921590;28;20280;-79
2021/06/10 04:24:50;;;;;;;171.97;23.63;;;;;;;17.11;71.66;95824.13;6918882;28;20277;-79
2021/06/10 04:28:11;;;;;;;74.77;20.90;;;;;;;17.02;72.58;95827.78;6931174;28;20397;-78
2021/06/10 04:31:31;;;;;;;71.50;20.37;;;;;;;17.12;73.04;95834.72;6913725;28;20238;-77
2021/06/10 04:34:52;;;;;;;19.93;17.90;;;;;;;17.26;73.04;95833.25;6918442;28;20212;-78
2021/06/10 04:38:14;;;;;;;33.50;19.60;;;;;;;17.40;72.69;95832.59;6912073;28;20224;-77
2021/06/10 04:41:35;;;;;;;54.60;19.23;;;;;;;17.49;72.71;95833.50;6898416;28;20835;-78
2021/06/10 04:44:55;;;;;;;109.70;20.27;;;;;;;17.54;72.88;95823.94;6909307;28;20220;-78
2021/06/10 04:48:18;;;;;;;99.20;20.43;;;;;;;17.63;73.17;95829.34;6901723;28;20617;-77
2021/06/10 04:51:38;;;;;;;120.33;20.13;;;;;;;17.69;73.05;95828.69;6920989;28;20717;-80
2021/06/10 04:55:01;;;;;;;60.47;19.30;;;;;;;17.73;73.10;95827.34;6918869;28;20292;-77
2021/06/10 04:58:22;;;;;;;27.77;17.60;;;;;;;17.79;72.84;95834.75;6916684;28;20220;-75
2021/06/10 05:01:44;;;;;;;118.87;19.37;;;;;;;17.88;72.86;95836.44;6909564;28;20390;-73
2021/06/10 05:05:06;;;;;;;80.43;17.33;;;;;;;17.98;72.88;95832.59;6914931;28;20213;-75
2021/06/10 05:08:26;;;;;;;19.07;16.43;;;;;;;18.07;72.53;95837.94;6916268;28;20223;-74
2021/06/10 05:11:47;;;;;;;44.90;19.00;;;;;;;18.15;72.34;95836.13;6914010;28;20224;-75
2021/06/10 05:15:08;;;;;;;61.60;17.03;;;;;;;18.22;72.04;95847.03;6912781;28;21016;-75
2021/06/10 05:18:28;;;;;;;19.27;16.60;;;;;;;18.23;71.74;95830.72;6895080;28;20243;-74
2021/06/10 05:21:48;;;;;;;27.37;16.83;;;;;;;18.29;71.75;95837.28;6932501;28;20237;-75
2021/06/10 05:25:09;;;;;;;69.97;17.53;;;;;;;18.35;71.50;95832.06;6882804;28;20228;-75
2021/06/10 05:28:34;;;;;;;29.53;15.40;;;;;;;18.42;71.51;95825.00;6898683;28;20239;-74
2021/06/10 05:31:55;;;;;;;16.10;14.70;;;;;;;18.54;71.24;95819.28;6931330;28;20733;-72
2021/06/10 05:35:17;;;;;;;16.83;15.27;;;;;;;18.61;71.04;95815.72;6930921;28;20311;-73
2021/06/10 05:38:40;;;;;;;20.63;16.63;;;;;;;18.75;70.89;95822.28;6898069;28;20605;-73
2021/06/10 05:42:03;;;;;;;16.87;15.43;;;;;;;18.81;70.68;95830.47;6899588;28;20300;-74
2021/06/10 05:45:23;;;;;;;26.00;14.60;;;;;;;18.89;70.06;95834.16;6895064;28;20232;-72
2021/06/10 05:48:44;;;;;;;19.53;14.83;;;;;;;18.75;70.10;95835.72;6898591;28;20303;-75
2021/06/10 05:52:07;;;;;;;20.03;15.20;;;;;;;18.36;71.04;95831.03;6862448;28;20216;-79
2021/06/10 05:55:27;;;;;;;18.23;16.30;;;;;;;18.12;71.91;95840.97;6894446;28;20233;-79
2021/06/10 05:58:50;;;;;;;18.30;16.40;;;;;;;17.96;72.55;95831.06;6890907;28;20317;-81
2021/06/10 06:02:13;;;;;;;18.80;15.30;;;;;;;17.87;73.06;95837.44;6929160;28;20289;-78
2021/06/10 06:05:33;;;;;;;18.10;15.93;;;;;;;17.80;73.73;95833.75;6903698;28;20272;-80
2021/06/10 06:08:54;;;;;;;25.37;16.20;;;;;;;17.75;74.49;95836.09;6911229;28;20240;-75
2021/06/10 06:12:15;;;;;;;16.53;15.13;;;;;;;17.69;74.91;95831.38;6914888;28;20224;-78
2021/06/10 06:15:36;;;;;;;114.83;16.87;;;;;;;17.74;75.38;95829.03;6909507;28;20315;-76
2021/06/10 06:18:58;;;;;;;40.87;17.77;;;;;;;17.79;75.51;95834.75;6908575;28;20219;-77
2021/06/10 06:22:21;;;;;;;78.17;18.67;;;;;;;17.79;75.85;95827.53;6911146;28;20229;-77
2021/06/10 06:25:41;;;;;;;17.90;16.33;;;;;;;17.77;76.02;95837.59;6913111;28;20220;-77
2021/06/10 06:29:04;;;;;;;18.33;15.27;;;;;;;17.82;76.14;95834.41;6902905;28;20322;-76
2021/06/10 06:32:24;;;;;;;17.17;15.70;;;;;;;17.88;76.46;95834.59;6917317;28;20266;-76
2021/06/10 06:35:45;;;;;;;14.20;13.10;;;;;;;17.98;76.70;95835.28;6920154;28;20228;-77
2021/06/10 06:39:07;;;;;;;14.30;13.13;;;;;;;18.10;76.72;95832.25;6918147;28;20259;-76
2021/06/10 06:42:27;;;;;;;14.40;13.00;;;;;;;18.17;76.20;95836.78;6911166;28;20239;-75
2021/06/10 06:45:50;;;;;;;17.37;14.07;;;;;;;18.23;76.12;95836.09;6895633;28;20303;-75
2021/06/10 06:49:11;;;;;;;16.33;14.83;;;;;;;18.30;76.33;95844.34;6912378;28;20676;-76
2021/06/10 06:52:31;;;;;;;15.03;13.83;;;;;;;18.40;76.13;95840.47;6922618;28;20727;-77
2021/06/10 06:55:51;;;;;;;17.43;15.93;;;;;;;18.55;76.05;95842.50;6920439;28;20219;-76
2021/06/10 06:59:12;;;;;;;16.70;15.20;;;;;;;18.65;75.50;95841.31;6925457;28;20234;-74
2021/06/10 07:02:35;;;;;;;16.53;15.03;;;;;;;18.71;74.78;95834.41;6940059;28;20691;-74
2021/06/10 07:05:58;;;;;;;16.00;14.67;;;;;;;18.80;74.65;95838.75;6934387;28;20216;-75
2021/06/10 07:09:18;;;;;;;17.33;15.83;;;;;;;18.89;74.50;95836.88;6919315;28;20328;-74
2021/06/10 07:12:39;;;;;;;26.03;23.83;;;;;;;18.94;74.29;95837.19;6898312;28;20217;-76
2021/06/10 07:15:59;;;;;;;18.00;16.47;;;;;;;18.98;74.20;95844.72;6912514;28;20689;-75
2021/06/10 07:19:20;;;;;;;16.60;15.10;;;;;;;19.09;74.44;95836.28;6917436;28;20694;-76
2021/06/10 07:22:41;;;;;;;16.23;14.83;;;;;;;19.23;74.02;95840.09;6912354;28;20216;-75
2021/06/10 07:26:02;;;;;;;15.20;13.73;;;;;;;19.37;73.47;95842.03;6893620;28;20221;-75
2021/06/10 07:29:22;;;;;;;14.70;13.47;;;;;;;19.53;72.75;95835.75;6900286;28;20295;-76
2021/06/10 07:32:43;;;;;;;15.37;13.87;;;;;;;19.76;73.05;95833.97;6909732;28;20232;-76
2021/06/10 07:36:03;;;;;;;14.60;13.50;;;;;;;20.00;72.97;95841.88;6910014;28;20221;-76
2021/06/10 07:39:26;;;;;;;13.50;12.40;;;;;;;20.23;71.77;95839.16;6891904;28;20223;-73
2021/06/10 07:42:49;;;;;;;15.50;14.10;;;;;;;20.39;70.78;95846.31;6907522;28;20360;-77
2021/06/10 07:46:12;;;;;;;13.83;12.73;;;;;;;20.54;70.31;95849.88;6893350;28;20247;-75
2021/06/10 07:49:33;;;;;;;13.03;12.03;;;;;;;20.76;70.55;95851.69;6907968;28;20238;-77
2021/06/10 07:52:53;;;;;;;13.90;12.80;;;;;;;20.96;69.19;95843.88;6920288;28;20230;-77
2021/06/10 07:56:14;;;;;;;16.03;14.73;;;;;;;21.11;68.40;95844.72;6892251;28;20220;-75
2021/06/10 07:59:37;;;;;;;12.97;11.87;;;;;;;21.32;68.40;95846.72;6929641;28;20220;-75
2021/06/10 08:02:58;;;;;;;11.33;10.43;;;;;;;21.62;68.29;95853.75;6921609;28;20592;-75
2021/06/10 08:06:20;;;;;;;13.97;10.40;;;;;;;21.97;67.42;95853.97;6905704;28;20255;-76
2021/06/10 08:09:40;;;;;;;12.90;11.53;;;;;;;22.27;65.76;95854.69;6887950;28;20232;-76
2021/06/10 08:13:01;;;;;;;10.37;9.57;;;;;;;22.51;65.54;95852.41;6905831;28;20219;-75
2021/06/10 08:16:21;;;;;;;10.73;9.83;;;;;;;22.83;64.02;95851.03;6905921;28;20259;-77
2021/06/10 08:19:42;;;;;;;12.73;11.53;;;;;;;23.23;62.80;95854.00;6887951;28;20228;-76
2021/06/10 08:23:03;;;;;;;11.20;10.17;;;;;;;23.62;61.08;95842.53;6898329;28;20216;-76
2021/06/10 08:26:24;;;;;;;9.60;8.80;;;;;;;24.13;60.46;95842.91;6911221;28;20962;-76
2021/06/10 08:29:44;;;;;;;10.90;9.90;;;;;;;24.60;58.38;95839.22;6907557;28;20228;-75
2021/06/10 08:33:05;;;;;;;12.10;10.97;;;;;;;25.01;56.64;95828.16;6909232;28;20745;-75
2021/06/10 08:36:26;;;;;;;13.23;12.05;;;;;;;25.40;54.86;95829.97;6910384;28;20216;-75
2021/06/10 08:39:46;;;;;;;11.07;10.27;;;;;;;25.78;53.97;95830.88;6907618;28;20231;-75
2021/06/10 08:43:08;;;;;;;11.55;10.43;;;;;;;26.28;52.92;95834.59;6906336;28;20278;-75
2021/06/10 08:46:33;;;;;;;10.48;9.57;;;;;;;26.83;51.72;95829.38;6907484;28;20212;-75
2021/06/10 08:49:53;;;;;;;12.00;10.90;;;;;;;27.39;50.48;95832.00;6903855;28;21087;-78
2021/06/10 08:53:14;;;;;;;11.90;10.90;;;;;;;28.10;48.72;95825.91;6889088;28;20212;-78
2021/06/10 08:56:37;;;;;;;10.43;9.30;;;;;;;28.81;47.55;95822.34;6920884;28;20215;-78
2021/06/10 08:59:57;;;;;;;10.55;9.75;;;;;;;29.31;45.64;95828.22;6912039;28;20231;-77
2021/06/10 09:03:24;;;;;;;9.98;9.07;;;;;;;30.22;44.33;95824.69;6922889;28;20227;-78
2021/06/10 09:06:50;;;;;;;10.75;9.95;;;;;;;31.45;41.93;95829.28;6924069;28;20207;-78
2021/06/10 09:10:11;;;;;;;9.30;8.43;;;;;;;32.50;38.90;95825.41;6917637;28;20228;-79
2021/06/10 09:13:46;;;;;;;9.50;8.68;;;;;;;33.45;36.74;95827.41;6920528;28;20211;-76
2021/06/10 09:17:06;;;;;;;9.60;8.90;;;;;;;34.11;35.09;95836.00;6899542;28;20733;-79
2021/06/10 09:20:36;;;;;;;7.82;7.13;;;;;;;34.84;33.96;95830.22;6922782;28;20204;-78
2021/06/10 09:24:29;;;;;;;12.82;7.53;;;;;;;35.42;31.14;95824.41;6895284;28;20572;-78
2021/06/10 09:28:03;;;;;;;6.97;6.38;;;;;;;36.28;30.54;95829.72;6906019;28;20729;-77
2021/06/10 09:31:32;;;;;;;6.57;6.05;;;;;;;36.93;29.07;95820.22;6916215;28;20243;-79
2021/06/10 09:35:04;;;;;;;6.97;6.47;;;;;;;37.48;27.53;95826.41;6938162;28;20211;-78
2021/06/10 09:38:27;;;;;;;6.13;5.63;;;;;;;37.90;26.64;95815.47;6918054;28;20231;-77
2021/06/10 09:42:12;;;;;;;6.20;5.70;;;;;;;38.52;25.49;95816.41;6914365;28;20213;-78
2021/06/10 09:45:33;;;;;;;11.93;10.88;;;;;;;38.88;24.14;95820.31;6907387;28;20227;-76
2021/06/10 09:49:09;;;;;;;6.80;6.22;;;;;;;39.27;23.88;95822.75;6922668;28;20224;-77
2021/06/10 09:52:43;;;;;;;5.00;4.60;;;;;;;39.45;22.64;95819.13;6919661;28;20222;-76
2021/06/10 09:56:08;;;;;;;9.05;5.40;;;;;;;39.57;22.91;95817.81;6920454;28;20250;-77
2021/06/10 09:59:45;;;;;;;6.05;5.47;;;;;;;39.72;23.03;95825.88;6920811;28;20828;-78
2021/06/10 10:03:06;;;;;;;6.40;5.82;;;;;;;40.02;22.76;95824.50;6935931;28;20238;-78
2021/06/10 10:06:34;;;;;;;6.03;5.57;;;;;;;40.11;22.98;95814.28;6922464;28;20223;-78
2021/06/10 10:09:57;;;;;;;5.60;5.10;;;;;;;40.02;22.02;95813.38;6913531;28;20816;-77
2021/06/10 10:13:18;;;;;;;5.63;5.25;;;;;;;39.73;22.00;95808.06;6911628;28;20212;-77
2021/06/10 10:16:40;;;;;;;6.35;5.82;;;;;;;39.28;22.57;95807.75;6894715;28;20212;-75
2021/06/10 10:20:00;;;;;;;6.05;5.45;;;;;;;38.62;22.94;95796.84;6893510;28;20224;-78
2021/06/10 10:23:22;;;;;;;4.72;4.43;;;;;;;37.54;22.89;95797.56;6895168;28;20208;-78
2021/06/10 10:26:43;;;;;;;6.88;6.00;;;;;;;36.48;24.41;95800.00;6911165;28;20234;-77
2021/06/10 10:30:04;;;;;;;6.05;5.55;;;;;;;35.51;25.86;95795.94;6914522;28;20240;-76
2021/06/10 10:33:26;;;;;;;6.50;6.00;;;;;;;34.53;27.00;95797.28;6929509;28;20585;-77
2021/06/10 10:36:47;;;;;;;6.82;6.20;;;;;;;33.58;28.09;95791.94;6915353;28;20208;-77
2021/06/10 10:40:13;;;;;;;7.15;6.55;;;;;;;32.88;29.79;95788.69;6895817;28;20687;-76
2021/06/10 10:43:34;;;;;;;7.20;6.60;;;;;;;32.29;31.36;95786.72;6912959;28;20222;-77
2021/06/10 10:47:08;;;;;;;7.07;6.55;;;;;;;31.87;32.40;95791.16;6937754;28;20236;-77
2021/06/10 10:50:42;;;;;;;7.65;6.95;;;;;;;31.40;32.33;95793.53;6915037;28;20280;-76
2021/06/10 10:54:30;;;;;;;6.57;6.07;;;;;;;30.95;32.05;95786.25;6903709;28;20213;-76
2021/06/10 10:58:10;;;;;;;7.47;6.88;;;;;;;30.55;33.69;95791.06;6894812;28;20217;-76
2021/06/10 11:01:31;;;;;;;7.45;6.65;;;;;;;30.24;33.96;95787.75;6900229;28;20708;-77
2021/06/10 11:04:59;;;;;;;8.35;7.65;;;;;;;29.97;34.50;95781.22;6914147;28;20713;-77
2021/06/10 11:08:23;;;;;;;7.63;7.03;;;;;;;29.73;35.25;95780.41;6913816;28;20737;-76
2021/06/10 11:12:01;;;;;;;7.72;7.05;;;;;;;29.37;34.99;95772.56;6915141;28;20612;-74
2021/06/10 11:15:23;;;;;;;7.22;6.63;;;;;;;29.18;36.04;95774.56;6896349;28;20560;-76
2021/06/10 11:18:48;;;;;;;7.38;6.75;;;;;;;29.07;36.80;95778.16;6913709;28;20246;-76
2021/06/10 11:22:24;;;;;;;7.18;6.57;;;;;;;28.89;37.17;95765.41;6909215;28;20221;-76
2021/06/10 11:25:52;;;;;;;8.43;6.60;;;;;;;28.87;37.69;95764.00;6889142;28;20579;-76
2021/06/10 11:29:14;;;;;;;7.05;6.38;;;;;;;28.93;38.81;95768.50;6914159;28;20212;-76
2021/06/10 11:32:55;;;;;;;6.97;6.30;;;;;;;28.83;36.67;95765.53;6915338;28;20224;-77
2021/06/10 11:36:16;;;;;;;6.85;6.35;;;;;;;28.73;37.11;95762.56;6897873;28;20204;-77
2021/06/10 11:39:37;;;;;;;7.10;6.60;;;;;;;28.60;37.63;95755.41;6928403;28;20216;-76
2021/06/10 11:42:58;;;;;;;7.03;6.32;;;;;;;28.56;38.17;95759.66;6910456;28;20571;-76
2021/06/10 11:46:19;;;;;;;6.75;6.15;;;;;;;28.51;37.54;95748.63;6927653;28;20702;-76
2021/06/10 11:49:39;;;;;;;6.82;6.10;;;;;;;28.52;37.16;95756.56;6937969;28;20216;-76
2021/06/10 11:53:08;;;;;;;8.32;6.28;;;;;;;28.50;37.48;95745.06;6918268;28;20236;-77
2021/06/10 11:56:29;;;;;;;8.23;5.47;;;;;;;28.41;37.40;95738.28;6938753;28;20298;-76
2021/06/10 11:59:50;;;;;;;5.82;5.43;;;;;;;28.30;36.49;95740.97;6903632;28;20216;-76
2021/06/10 12:03:13;;;;;;;6.20;5.70;;;;;;;28.22;37.28;95739.41;6908660;28;20212;-75
2021/06/10 12:06:33;;;;;;;11.93;10.52;;;;;;;28.29;38.35;95729.22;6913495;28;20945;-74
2021/06/10 12:09:55;;;;;;;6.38;5.82;;;;;;;28.37;38.34;95717.13;6907896;28;20837;-75
2021/06/10 12:13:33;;;;;;;6.40;5.90;;;;;;;28.48;38.71;95706.19;6917098;28;20235;-75
2021/06/10 12:17:00;;;;;;;5.55;5.15;;;;;;;28.52;39.18;95707.38;6913647;28;20215;-75
2021/06/10 12:20:23;;;;;;;6.35;5.65;;;;;;;28.56;37.04;95696.81;6918594;28;20270;-74
2021/06/10 12:23:50;;;;;;;6.53;5.57;;;;;;;28.51;37.58;95699.44;6901926;28;20211;-75
2021/06/10 12:27:16;;;;;;;6.70;5.72;;;;;;;28.40;37.99;95706.56;6897252;28;20219;-75
2021/06/10 12:30:40;;;;;;;6.07;5.57;;;;;;;28.36;38.85;95693.59;6936210;28;20219;-75
2021/06/10 12:34:04;;;;;;;6.05;5.55;;;;;;;28.39;39.76;95699.41;6908089;28;20302;-75
2021/06/10 12:37:25;;;;;;;5.60;5.20;;;;;;;28.42;38.07;95690.75;6899521;28;20251;-75
2021/06/10 12:40:47;;;;;;;6.43;5.82;;;;;;;28.38;37.96;95691.44;6912233;28;20246;-76
2021/06/10 12:44:11;;;;;;;5.63;5.15;;;;;;;28.28;36.75;95691.19;6915843;28;20211;-74
2021/06/10 12:47:36;;;;;;;4.82;4.53;;;;;;;28.26;37.43;95696.91;6913560;28;20226;-75
2021/06/10 12:51:22;;;;;;;4.72;4.35;;;;;;;28.29;36.94;95692.88;6922880;28;20705;-75
2021/06/10 12:54:47;;;;;;;5.28;4.88;;;;;;;28.32;38.29;95701.41;6896999;28;20230;-76
2021/06/10 12:58:08;;;;;;;4.78;4.32;;;;;;;28.36;39.25;95694.44;6922999;28;20213;-74
2021/06/10 13:01:28;;;;;;;5.00;4.63;;;;;;;28.42;39.35;95692.66;6910379;28;20223;-74
2021/06/10 13:04:51;;;;;;;5.47;5.00;;;;;;;28.48;38.61;95684.34;6922425;28;20205;-75
2021/06/10 13:08:13;;;;;;;4.68;4.28;;;;;;;28.50;38.78;95678.66;6921671;28;20823;-76
2021/06/10 13:11:33;;;;;;;4.93;4.43;;;;;;;28.44;37.13;95679.59;6904324;28;20222;-73
2021/06/10 13:15:10;;;;;;;5.75;5.18;;;;;;;28.45;37.42;95681.25;6901354;28;20208;-75
2021/06/10 13:18:34;;;;;;;5.25;4.82;;;;;;;28.40;36.42;95684.69;6922064;28;20211;-76
2021/06/10 13:22:11;;;;;;;5.10;4.70;;;;;;;28.39;37.49;95690.38;6913804;28;20221;-75
2021/06/10 13:25:31;;;;;;;5.32;4.93;;;;;;;28.34;36.53;95685.63;6916330;28;20208;-76
2021/06/10 13:28:55;;;;;;;5.57;5.07;;;;;;;28.31;36.02;95690.75;6918424;28;20223;-76
2021/06/10 13:32:30;;;;;;;5.75;5.28;;;;;;;28.26;37.12;95680.53;6918604;28;20208;-71
2021/06/10 13:35:51;;;;;;;7.57;6.90;;;;;;;28.23;37.77;95675.53;6925319;28;20641;-75
2021/06/10 13:39:12;;;;;;;9.25;6.35;;;;;;;28.14;38.69;95674.22;6886736;28;20693;-75
2021/06/10 13:42:33;;;;;;;6.90;6.05;;;;;;;28.23;41.09;95691.06;6932446;28;20208;-72
2021/06/10 13:45:54;;;;;;;7.10;6.40;;;;;;;28.19;40.25;95668.88;6914906;28;20698;-76
2021/06/10 13:49:17;;;;;;;7.32;6.03;;;;;;;28.25;40.99;95678.03;6941416;28;20247;-75
2021/06/10 13:52:37;;;;;;;8.48;6.40;;;;;;;28.06;40.72;95689.03;6922552;28;20215;-75
2021/06/10 13:56:00;;;;;;;6.50;5.80;;;;;;;27.83;41.49;95697.13;6921420;28;20220;-75
2021/06/10 13:59:21;;;;;;;7.55;6.60;;;;;;;27.54;41.66;95681.59;6927874;28;20220;-76
2021/06/10 14:02:41;;;;;;;6.80;6.30;;;;;;;27.21;41.80;95682.84;6896051;28;20212;-75
2021/06/10 14:06:04;;;;;;;25.25;6.25;;;;;;;27.07;42.76;95677.78;6903956;28;20295;-76
2021/06/10 14:09:25;;;;;;;6.53;5.93;;;;;;;26.92;42.80;95669.16;6904624;28;20740;-75
2021/06/10 14:12:45;;;;;;;6.88;6.22;;;;;;;26.75;42.69;95675.19;6936991;28;20208;-76
2021/06/10 14:16:10;;;;;;;6.67;6.17;;;;;;;26.62;43.07;95669.88;6930423;28;20580;-75
2021/06/10 14:19:30;;;;;;;7.30;6.70;;;;;;;26.56;43.78;95661.78;6918159;28;20309;-75
2021/06/10 14:22:51;;;;;;;8.87;8.23;;;;;;;26.42;43.68;95661.91;6932003;28;20214;-75
2021/06/10 14:26:12;;;;;;;7.10;6.50;;;;;;;26.35;44.19;95661.16;6915991;28;20682;-75
2021/06/10 14:29:43;;;;;;;6.97;6.37;;;;;;;26.42;44.23;95647.44;6936863;28;20281;-75
2021/06/10 14:33:04;;;;;;;7.65;7.00;;;;;;;26.42;44.07;95645.56;6902757;28;20879;-75
2021/06/10 14:36:25;;;;;;;7.85;7.07;;;;;;;26.32;44.43;95645.22;6931072;28;20701;-73
2021/06/10 14:39:46;;;;;;;7.65;6.93;;;;;;;26.28;45.12;95643.19;6922201;28;20243;-76
2021/06/10 14:43:07;;;;;;;7.27;6.67;;;;;;;26.23;45.25;95637.59;6913999;28;20205;-75
2021/06/10 14:46:27;;;;;;;7.27;6.63;;;;;;;26.24;46.01;95642.81;6926221;28;20233;-75
2021/06/10 14:49:47;;;;;;;6.73;6.23;;;;;;;26.11;46.50;95653.75;6916811;28;20212;-76
2021/06/10 14:53:10;;;;;;;6.77;6.27;;;;;;;26.07;46.82;95647.09;6919691;28;20218;-75
2021/06/10 14:56:31;;;;;;;7.43;6.70;;;;;;;26.07;46.55;95652.56;6922801;28;20245;-74
2021/06/10 14:59:51;;;;;;;6.40;5.90;;;;;;;26.03;46.64;95654.91;6921641;28;20219;-75
2021/06/10 15:03:12;;;;;;;6.80;6.30;;;;;;;25.99;46.91;95648.22;6916080;28;20233;-75
2021/06/10 15:06:32;;;;;;;6.93;6.13;;;;;;;26.01;46.83;95648.00;6901704;28;20212;-75
2021/06/10 15:09:53;;;;;;;10.03;5.87;;;;;;;25.99;46.47;95645.50;6884532;28;20629;-75
2021/06/10 15:13:13;;;;;;;6.20;5.77;;;;;;;25.87;46.24;95646.44;6920928;28;20208;-75
2021/06/10 15:16:33;;;;;;;6.63;5.97;;;;;;;25.82;46.41;95635.38;6914889;28;20238;-75
2021/06/10 15:19:58;;;;;;;6.77;6.00;;;;;;;25.84;46.46;95638.72;6917096;28;20217;-75
2021/06/10 15:23:19;;;;;;;6.17;5.67;;;;;;;25.78;46.34;95628.72;6930083;28;20218;-75
2021/06/10 15:26:39;;;;;;;6.53;6.03;;;;;;;25.72;46.13;95621.44;6895859;28;20309;-74
2021/06/10 15:30:00;;;;;;;7.20;6.23;;;;;;;25.79;46.74;95628.50;6935383;28;20210;-74
2021/06/10 15:33:21;;;;;;;6.93;6.43;;;;;;;25.86;46.46;95634.72;6910295;28;20209;-74
2021/06/10 15:36:41;;;;;;;6.37;5.87;;;;;;;25.84;45.81;95639.56;6916556;28;20209;-75
2021/06/10 15:40:02;;;;;;;7.07;5.90;;;;;;;25.78;45.55;95629.56;6911931;28;20698;-75
2021/06/10 15:43:22;;;;;;;7.77;6.83;;;;;;;25.77;44.95;95621.63;6911253;28;20242;-74